Timeline UpdatesTrip UpdatesNews PostsPvt Posts♥♥Travel TipsAdmin PostsConv PostsFollowed PostsChat RequestsBlog PostsPNR Posts

Disclaimer
Search
 
 
Sat Nov 1, 2014 01:34:22 ISTHomeTrainsΣChainsAtlasPNRForumGalleryNewsFAQTripsMembersLoginFeedback
No Recent News for this Train
Other Trains in the News **new
Latest...
.
Wed May 15, 2013 (12:03AM)
⇐ Return Journey: Train# 59439

59440/Ahmedabad - Mumbai Central Passenger

Time-Table HAS CHANGED.
Oct 14 (2:56PM)
Change Departure Station:
Change Arrival Station:
Post a Train Travel TipPost a Train Travel Tip **new
Post a Comment/Question/Picture/VideoPost a Comment/Question/Picture/Video
Pantry/Catering
✕ NO Pantry Car
✕ NO Catering
RSA - Rake Sharing
59439,59440,59441 and 59442 all share rakes.
Rake/Coach Composition
Loco
BL WCAM-1/BRC WAG-5A
News    PNR    Forum    Time-Table    Availability    Fare Chart    Map    Arr/Dep History    Trips    Gallery    ΣChains    X/O    Timeline    
Travel Time: 12h 23m    51 halts    Distance: 373 km    Avg Speed: 30 km/hr
Type: Passenger
Zone: WR/Western
Departs @ 23:00 (Avg 2m late)
Platform# 2
SMTWTFS
Ahmedabad Junction/ADI 
Arrives @ 11:23 +1 night (Avg 5m late)
Platform# ???
SMTWTFS
Dahanu Road/DRD 

51 halts. 72 intermediate Stations between Ahmedabad Junction and Dahanu Road

Show ALL intermediate Stations  Show Old Time-Table

#TrkCodeStation NameX/OArrivesAvgDepartsAvgHaltPFDay#KmSpeedElevZoneAddress
1/==/ADIAhmedabad Junction (12)»  -23:00+2210.02451mWRAhmedabad, Gujarat
2/==/MANManinagar (2)X  23:10 23:08+023:12 23:10+02m213.25850mWRAhmadabad, Gujarat
3/==/VTAVatva (4)X  23:17 23:15+823:19 23:17+92m--18.02549mWRDist. Ahmedabad 382445, Gujarat
4/==/BJDBarejadi Nandej (3)XO  23:40 23:38+1423:41 23:40+141 2m--116.65242mWRBareja-Barejadi Rd, Gujarat
5/==/KANJKanij (3)  23:47 23:45+1523:48 23:47+191 2m--121.01239mWRBareja-Barejadi Rd, Gujarat
6/==/NEPNenpur (2)O  00:02 00:01-00:03 00:02-1m--223.85035mWRState Highway 3, Gujarat
7/==/MHDMahemdavad Kheda Road (4)X  00:09 00:07+1100:10 00:09+171 2m--228.03837mWRMahemdavad, Gujarat
8/==/GTEGothaj (2)X  00:24 00:22+1400:26 00:24+172m--236.35032mWRState Highway 3, Gujarat
9/==/NDNadiad Junction (4)X  00:35+1400:39+124m--245.67337mWRNadiad, Gujarat
10/==/KBRVKanjari Boriyavi Junction (4)XO  00:50 00:48+2000:52 00:50+222m--256.61839mWRKanjari, Gujarat
11/--/ANNDAnand Junction (6)  01:15+801:20+75m--264.06944mWRAnand, Gujarat
12/==/VXDVadod (3)X  01:28 01:26+1301:29 01:28+131 2m--270.94144mWRAnand District, Gujarat
13/==/ADDAdas Road (4)X  01:36 01:34+1301:37 01:36+121 2m--274.94642mWRNational Highway 8, Gujarat
14/==/VDAVasad Junction (3)X  01:44 01:42+1201:46 01:44+112m--279.66940mWRVasad, Gujarat
15/==/RNORanoli (2)X  01:54 01:52+1401:55 01:54+131 2m--288.72339mWRVadodara District, Gujarat
16/==/BJWBajva (3)X  02:06 02:04+1402:07 02:06+141 2m--292.51638mWRVadodara, Gujarat
17/==/BRCVadodara Junction (7)X  02:33+602:38+65m--299.87336mWRVadodara 390005, Gujarat
18/==/ITAItola (4)  02:55 02:53+3002:56 02:55+421 2m--2118.07727mWRNational Highway 8 Vadodara, Gujarat
19/==/MYGMiyagam Karjan (2)  03:06 03:04+4103:08 03:06+402m--2129.67029mWRKarjan, Gujarat
20/==/PLJPalej (4)X  03:21 03:19+3903:23 03:21+412m--2144.94529mWRPalej, Gujarat
21/==/BHBharuch Junction (5)XO  04:15 03:55+3304:20 04:13+275 18m42170.38019mWRBharuch, Gujarat
22/==/AKVAnkleshwar Junction (4)X  04:39 04:20+3804:41 04:22+382m22179.66219mWRAnkleshwar, Gujarat
23/==/PAOPanoli (3)X  04:50 04:32+3904:52 04:33+432 1m--2189.92329mWRPanoli, Gujarat
24/==/HATHathuran (2)X  04:58 04:43-05:00 04:44-2 1m--2193.85232mWRKosamba, Gujarat
25/==/KSBKosamba Junction (3)XO  05:05 04:49+4005:07 04:51+392m--2198.15230mWRKosamba, Gujarat
26/==/KIMKim (2)X  05:16 05:00+3905:18 05:02+512m--2205.91818mWRNH 8, Gujarat
27/==/SYNSayan (3)XO  05:42 05:36+3205:44 05:38+342m--2215.91421mWRSayan Satellite town, Gujarat
28/==/GTXGothangam (2)XO  05:58 05:51+2606:00 05:53+252m--2218.81219mWRAmroli Sayan Rd, Gujarat
29/==/KSEKosad (2)  06:06 06:11+1306:08 06:13+152m--2222.52417mWRSurat, Gujarat
30/==/URNUtran (3)XO  06:23 06:21+1206:25 06:23+162m--2225.7715mWRSurat, Gujarat
31/==/STSurat (4)XOO  06:55+907:15+820m32229.64019mWRSurat 395001, Gujarat
32/==/UDNUdhna Junction (3)X  07:21+1007:23+102m22233.64816mWRUdhna 394210, Gujarat
33/==/BHETBhestan (2)  07:31 07:29+1207:32 07:31+121 2m22238.46813mWRSurat, Gujarat
34/==/SCHSachin (3)O  07:38 07:36+1207:40 07:38+122m--2244.15711mWRKansad Road Sachin, Gujarat
35/==/MRLMaroli (3)XO  07:46 07:45+1207:48 07:47+122m--2250.73015mWRMaroli, Gujarat
36/==/NVSNavsari (3)  08:05 08:04+808:06+131 2m--2259.25614mWRNavsari, Gujarat
37/==/VDHVedchha (3)X  08:16 08:15+1308:17+131 2m--2267.65113mWRNavsari, Gujarat
38/==/ACLAncheli (2)X  08:21-08:23-2m--2271.05720mWRNavsari, Gujarat
39/==/AMLAmalsad (3)  08:27+1408:29+152m--2274.85612mWRAmalsad, Gujarat
40/==/BIMBilimora Junction (4)O  08:35+1608:37+172m--2280.34711mWRBilimora, Gujarat
41/==/JRSJoravasan (2)  08:42-08:44-2m--2284.37615mWRJoravasan, Gujarat
42/==/DGIDungri (3)XO  08:48+1608:50+202m--2289.42120mWRNH 8, Gujarat
43/==/BLValsad (3)X  09:15+409:20+65m--2298.38015mWRValsad, Gujarat
44/==/ATULAtul (3)  09:25+1109:27+112m--2305.06022mWRValsad, Gujarat
45/==/PADPardi (3)  09:31+1009:33+102m--2308.94519mWRValsad, Gujarat
46/==/UVDUdvada (3)XO  09:41+809:43+132m--2314.92518mWRUdvada, Gujarat
47/==/VAPIVapi (3)X  10:06+610:08+92m--2324.54827mWRVapi, Gujarat
48/==/KEBKarambeli (2)XO  10:16-10:18-2m--2331.04829mWRNational Highway 8, Gujarat
49/==/BLDBhilad (3)X  10:24+1110:26+112m--2335.86933mWRBhilad, Gujarat
50/==/SJNSanjan (3)X  10:36+1210:38+132m--2347.45422mWRSanjan, Gujarat
51/==/UBRUmbargam Road (3)  10:44+1410:46+162m32352.73230mWRUmbergaon, Gujarat
52/==/GVDGholvad (4)  11:03+811:05+112m--2361.93714mWRGholvad, Maharashtra
53/==/DRDDahanu Road (5)•  11:22 11:23+511:25+103 2m--2373.05712mWRDahanu, Maharashtra
54/==/VGNVangaon (3)X  11:38+911:40+92m--2385.36311mWRDist. Palghar, Maharashtra
55/==/BORBoisar (3)  11:49+1011:51+102m32394.73817mWRBoisar Tel.no-02525-266626, Maharashtra
56/==/PLGPalghar (3)XO  12:09+112:11+22m--2406.05619mWRPalghar, Maharashtra
57/==/KLVKelve Road (3)X  12:20+712:22+62m--2414.46410mWRDist. Palghar, Maharashtra
58/==/SAHSaphale (2)X  12:28+812:30+72m22420.8588mWRDist. Palghar, Maharashtra
59/==/VTNVaitarna (2)XO  12:38+812:40+82m22428.6133mWRDist. Palghar, Maharashtra
60/==/VRVirar (8)X  13:20 13:18-113:28 13:20+68 2m42437.1286mWRDist. Palghar, Maharashtra
61/==/BSRVasai Road (7)X  13:36 13:38+013:38 13:40+12m52445.6427mWRVasai 401202, Maharashtra
62/==/BVIMumbai Borivali (8)X  14:05+114:13+18m62463.03819mWRMumbai - 400092, Maharashtra
63/==/BCTMumbai Central (9)  15:00+1---2492.6-3mWRMumbai 400008, Maharashtra
Scroll to Top
Scroll to Bottom